Time;durP1;ratioP1;P1;durP2;ratioP2;P2;SDS_P1;SDS_P2;PMS_P1;PMS_P2;Temp;Humidity;BMP_temperature;BMP_pressure;BME280_temperature;BME280_humidity;BME280_pressure;Samples;Min_cycle;Max_cycle;Signal;HPM_P1;HPM_P2
2023/08/02 00:00:56;;;;;;;5.70;4.50;;;;;;;16.30;100.00;97775.95;109360;1251;65043;-77
2023/08/02 00:03:35;;;;;;;5.10;4.40;;;;;;;16.29;100.00;97774.85;109577;1251;58250;-77
2023/08/02 00:06:02;;;;;;;5.00;4.40;;;;;;;16.28;100.00;97785.37;109600;1251;58148;-78
2023/08/02 00:08:29;;;;;;;6.20;4.10;;;;;;;16.28;100.00;97789.66;109618;1251;65352;-78
2023/08/02 00:10:56;;;;;;;5.50;4.20;;;;;;;16.28;100.00;97791.79;109584;1251;61045;-78
2023/08/02 00:13:22;;;;;;;5.50;3.90;;;;;;;16.28;100.00;97792.63;109577;1251;64795;-77
2023/08/02 00:15:51;;;;;;;6.50;4.10;;;;;;;16.28;100.00;97794.61;109569;1251;58194;-76
2023/08/02 00:18:18;;;;;;;5.10;4.60;;;;;;;16.28;100.00;97800.70;109609;1251;58151;-76
2023/08/02 00:20:44;;;;;;;5.80;4.00;;;;;;;16.30;100.00;97798.72;109586;1251;66229;-76
2023/08/02 00:23:11;;;;;;;4.80;3.70;;;;;;;16.31;100.00;97799.35;109581;1251;60855;-77
2023/08/02 00:25:39;;;;;;;5.10;3.40;;;;;;;16.31;100.00;97801.14;109564;1251;64790;-78
2023/08/02 00:28:05;;;;;;;4.40;3.70;;;;;;;16.30;100.00;97799.38;109551;1251;58543;-77
2023/08/02 00:30:45;;;;;;;4.80;3.60;;;;;;;16.32;100.00;97802.58;109552;1251;58233;-77
2023/08/02 00:33:12;;;;;;;4.80;4.30;;;;;;;16.32;100.00;97796.83;109604;1251;64040;-77
2023/08/02 00:35:46;;;;;;;4.30;3.90;;;;;;;16.33;100.00;97794.79;109562;1251;61479;-76
2023/08/02 00:38:13;;;;;;;4.70;3.60;;;;;;;16.35;100.00;97795.52;109492;1251;64006;-78
2023/08/02 00:40:39;;;;;;;6.50;4.50;;;;;;;16.36;100.00;97795.25;109563;1251;58197;-78
2023/08/02 00:43:06;;;;;;;4.80;4.00;;;;;;;16.37;100.00;97793.13;109565;1251;58146;-78
2023/08/02 00:45:33;;;;;;;4.60;4.20;;;;;;;16.39;100.00;97797.02;109610;1252;65093;-78
2023/08/02 00:48:00;;;;;;;4.50;4.10;;;;;;;16.41;100.00;97796.71;109592;1251;59843;-78
2023/08/02 00:50:29;;;;;;;4.90;3.90;;;;;;;16.43;100.00;97795.52;109546;1251;62416;-77
2023/08/02 00:52:56;;;;;;;4.90;4.10;;;;;;;16.44;100.00;97799.80;109529;1251;58135;-78
2023/08/02 00:55:22;;;;;;;6.20;4.20;;;;;;;16.46;100.00;97805.19;109568;1251;58251;-77
2023/08/02 00:57:49;;;;;;;4.30;3.90;;;;;;;16.48;100.00;97815.91;109376;1251;66183;-77
2023/08/02 01:00:16;;;;;;;4.00;3.70;;;;;;;16.49;100.00;97815.65;109577;1250;60783;-76
2023/08/02 01:02:43;;;;;;;4.80;3.80;;;;;;;16.50;100.00;97820.89;109551;1251;65119;-77
2023/08/02 01:05:10;;;;;;;4.80;4.30;;;;;;;16.51;100.00;97822.46;109543;1251;58336;-77
2023/08/02 01:08:04;;;;;;;6.60;3.90;;;;;;;16.50;100.00;97825.39;109544;1251;58159;-77
2023/08/02 01:10:52;;;;;;;4.10;3.70;;;;;;;16.51;100.00;97828.20;109006;1259;66144;-77
2023/08/02 01:13:20;;;;;;;4.50;3.90;;;;;;;16.51;100.00;97828.67;108989;1260;61022;-77
2023/08/02 01:15:48;;;;;;;4.80;4.40;;;;;;;16.52;100.00;97831.48;109015;1259;65139;-77
2023/08/02 01:18:14;;;;;;;5.50;3.80;;;;;;;16.53;100.00;97827.94;108964;1260;58218;-77
2023/08/02 01:20:41;;;;;;;4.80;4.00;;;;;;;16.53;100.00;97826.30;108969;1259;58209;-77
2023/08/02 01:23:08;;;;;;;4.70;3.80;;;;;;;16.53;100.00;97827.02;109026;1260;65489;-77
2023/08/02 01:25:36;;;;;;;5.30;4.20;;;;;;;16.53;100.00;97824.52;109001;1259;59882;-78
2023/08/02 01:28:09;;;;;;;5.10;4.40;;;;;;;16.53;100.00;97826.16;108987;1260;63827;-77
2023/08/02 01:30:38;;;;;;;5.40;3.90;;;;;;;16.53;100.00;97825.79;108907;1259;58266;-77
2023/08/02 01:33:05;;;;;;;4.00;3.70;;;;;;;16.52;100.00;97820.48;108988;1260;58471;-77
2023/08/02 01:35:32;;;;;;;4.20;3.70;;;;;;;16.50;100.00;97824.83;108917;1259;65485;-77
2023/08/02 01:37:59;;;;;;;4.40;3.90;;;;;;;16.48;100.00;97827.79;108973;1260;61103;-77
2023/08/02 01:40:26;;;;;;;5.80;3.90;;;;;;;16.43;100.00;97827.73;108959;1260;63977;-76
2023/08/02 01:42:52;;;;;;;6.20;3.90;;;;;;;16.40;100.00;97828.25;108990;1259;58231;-78
2023/08/02 01:45:19;;;;;;;6.40;4.70;;;;;;;16.37;100.00;97831.25;109001;1259;58244;-77
2023/08/02 01:47:47;;;;;;;4.80;4.40;;;;;;;16.34;100.00;97835.00;109397;1251;65913;-77
2023/08/02 01:50:14;;;;;;;4.70;3.70;;;;;;;16.32;100.00;97838.23;109609;1251;60786;-77
2023/08/02 01:52:40;;;;;;;5.00;4.20;;;;;;;16.30;100.00;97836.92;109628;1251;65193;-77
2023/08/02 01:55:07;;;;;;;4.60;4.20;;;;;;;16.25;100.00;97837.42;109564;1251;58133;-77
2023/08/02 01:57:34;;;;;;;4.50;4.10;;;;;;;16.21;100.00;97845.16;109241;1251;58295;-77
2023/08/02 02:03:12;;;;;;;5.60;4.40;;;;;;;16.16;100.00;97845.95;109371;1254;61229;-77
2023/08/02 02:05:39;;;;;;;4.50;4.10;;;;;;;16.13;100.00;97843.89;109298;1254;65242;-77
2023/08/02 02:08:05;;;;;;;4.90;4.30;;;;;;;16.12;100.00;97842.02;109310;1254;58178;-77
2023/08/02 02:10:32;;;;;;;6.20;4.20;;;;;;;16.12;100.00;97842.65;109094;1254;58310;-77
2023/08/02 02:12:59;;;;;;;5.80;3.90;;;;;;;16.10;100.00;97844.27;109325;1254;64919;-77
2023/08/02 02:15:25;;;;;;;5.60;5.10;;;;;;;16.08;100.00;97848.42;109370;1254;60972;-77
2023/08/02 02:17:52;;;;;;;6.10;4.40;;;;;;;16.07;100.00;97853.58;109309;1254;63675;-77
2023/08/02 02:20:18;;;;;;;5.00;4.50;;;;;;;16.06;100.00;97855.14;109341;1254;58644;-77
2023/08/02 02:22:45;;;;;;;6.10;4.80;;;;;;;16.03;100.00;97857.69;109335;1254;58237;-77
2023/08/02 02:25:12;;;;;;;6.20;4.40;;;;;;;16.01;100.00;97860.65;109348;1254;64997;-77
2023/08/02 02:27:38;;;;;;;6.30;4.70;;;;;;;15.98;100.00;97865.27;109353;1254;60066;-77
2023/08/02 02:30:05;;;;;;;5.10;4.60;;;;;;;15.95;100.00;97867.20;109339;1254;64006;-77
2023/08/02 02:32:32;;;;;;;5.10;4.60;;;;;;;15.92;100.00;97871.29;109323;1254;58392;-77
2023/08/02 02:34:59;;;;;;;6.50;4.50;;;;;;;15.89;100.00;97875.56;109548;1251;58178;-77
2023/08/02 02:37:25;;;;;;;5.50;4.90;;;;;;;15.86;100.00;97877.30;109671;1251;66419;-77
2023/08/02 02:39:52;;;;;;;4.80;4.30;;;;;;;15.83;100.00;97878.67;109325;1251;59838;-76
2023/08/02 02:42:18;;;;;;;5.10;4.70;;;;;;;15.80;100.00;97879.70;109704;1251;64798;-78
2023/08/02 02:44:45;;;;;;;5.90;4.70;;;;;;;15.76;100.00;97882.58;109590;1251;58144;-76
2023/08/02 02:47:11;;;;;;;6.00;4.60;;;;;;;15.74;100.00;97889.48;109693;1251;58158;-77
2023/08/02 02:49:38;;;;;;;6.00;4.50;;;;;;;15.71;100.00;97889.75;109399;1254;65600;-77
2023/08/02 02:52:05;;;;;;;4.50;4.10;;;;;;;15.68;100.00;97896.76;109667;1251;60164;-77
2023/08/02 02:54:32;;;;;;;6.80;4.80;;;;;;;15.65;100.00;97898.15;109398;1251;63916;-76
2023/08/02 02:56:59;;;;;;;6.40;4.40;;;;;;;15.63;100.00;97899.04;109557;1251;58181;-76
2023/08/02 02:59:26;;;;;;;4.90;4.50;;;;;;;15.60;100.00;97899.30;109514;1251;58230;-76
2023/08/02 03:01:52;;;;;;;5.90;4.60;;;;;;;15.58;100.00;97901.30;109604;1251;65215;-76
2023/08/02 03:04:19;;;;;;;5.20;4.60;;;;;;;15.57;100.00;97900.56;109636;1251;60762;-77
2023/08/02 03:06:45;;;;;;;5.50;4.90;;;;;;;15.55;100.00;97905.89;109540;1251;65048;-77
2023/08/02 03:09:12;;;;;;;6.30;5.00;;;;;;;15.54;100.00;97909.26;109549;1251;58154;-77
2023/08/02 03:11:38;;;;;;;6.00;4.70;;;;;;;15.53;100.00;97909.77;109560;1251;58204;-77
2023/08/02 03:14:05;;;;;;;5.30;4.80;;;;;;;15.52;100.00;97912.77;109235;1251;66255;-77
2023/08/02 03:16:32;;;;;;;6.40;5.00;;;;;;;15.52;100.00;97912.35;109581;1251;60049;-77
2023/08/02 03:18:58;;;;;;;7.70;5.10;;;;;;;15.51;100.00;97914.20;109586;1251;72067;-76
2023/08/02 03:21:25;;;;;;;5.30;4.90;;;;;;;15.50;100.00;97914.69;109568;1251;58251;-77
2023/08/02 03:23:52;;;;;;;6.10;5.10;;;;;;;15.49;100.00;97912.98;109604;1251;58128;-77
2023/08/02 03:26:18;;;;;;;6.10;5.50;;;;;;;15.49;100.00;97915.30;109589;1251;66220;-77
2023/08/02 03:28:45;;;;;;;5.80;5.10;;;;;;;15.50;100.00;97915.06;109223;1251;59836;-76
2023/08/02 03:31:12;;;;;;;5.30;4.80;;;;;;;15.50;100.00;97913.79;109609;1251;65027;-77
2023/08/02 03:33:38;;;;;;;6.20;5.40;;;;;;;15.52;100.00;97913.09;109572;1251;58117;-77
2023/08/02 03:36:05;;;;;;;6.30;4.90;;;;;;;15.54;100.00;97910.33;109477;1251;58433;-77
2023/08/02 03:38:32;;;;;;;7.20;4.90;;;;;;;15.57;100.00;97908.23;109615;1251;66339;-78
2023/08/02 03:40:59;;;;;;;5.30;4.80;;;;;;;15.79;100.00;97914.23;109566;1251;60706;-78
2023/08/02 03:43:25;;;;;;;4.40;4.00;;;;;;;16.42;100.00;97913.52;109542;1251;64064;-78
2023/08/02 03:45:52;;;;;;;4.40;3.90;;;;;;;17.12;100.00;97912.95;109646;1251;58215;-76
2023/08/02 03:48:18;;;;;;;6.00;3.90;;;;;;;17.74;100.00;97909.70;109678;1251;58128;-78
2023/08/02 03:50:45;;;;;;;3.70;3.40;;;;;;;18.34;100.00;97915.28;109584;1251;65173;-78
2023/08/02 03:53:12;;;;;;;4.20;3.80;;;;;;;18.89;100.00;97918.70;109613;1251;60711;-78
2023/08/02 03:55:38;;;;;;;3.70;3.40;;;;;;;19.41;100.00;97912.98;109613;1251;65065;-78
2023/08/02 03:58:05;;;;;;;4.40;3.40;;;;;;;19.84;100.00;97906.89;109423;1251;58285;-77
2023/08/02 04:00:32;;;;;;;3.20;2.90;;;;;;;20.22;100.00;97906.73;109624;1251;59218;-78
2023/08/02 04:03:00;;;;;;;5.30;3.30;;;;;;;20.69;100.00;97908.27;109594;1251;65138;-78
2023/08/02 04:05:27;;;;;;;4.60;3.50;;;;;;;21.15;100.00;97916.39;109610;1251;60919;-78
2023/08/02 04:07:53;;;;;;;4.50;3.10;;;;;;;21.50;100.00;97917.42;109573;1251;65130;-78
2023/08/02 04:10:20;;;;;;;5.40;3.20;;;;;;;21.73;100.00;97912.97;109597;1251;58997;-78
2023/08/02 04:12:50;;;;;;;4.50;3.30;;;;;;;22.09;100.00;97912.48;109587;1251;58284;-78
2023/08/02 04:15:17;;;;;;;5.20;2.70;;;;;;;22.39;100.00;97916.49;109573;1251;65078;-78
2023/08/02 04:17:44;;;;;;;3.30;3.00;;;;;;;22.74;100.00;97923.08;109615;1250;59969;-78
2023/08/02 04:20:11;;;;;;;3.50;3.20;;;;;;;22.97;100.00;97928.38;109537;1251;63692;-78
2023/08/02 04:22:37;;;;;;;4.20;3.30;;;;;;;23.16;100.00;97928.73;109491;1251;58244;-78
2023/08/02 04:25:04;;;;;;;3.40;2.80;;;;;;;23.42;100.00;97929.93;109584;1251;58134;-78
2023/08/02 04:27:31;;;;;;;3.80;3.00;;;;;;;23.67;100.00;97932.54;109623;1250;65988;-79
2023/08/02 04:29:57;;;;;;;4.00;2.90;;;;;;;23.91;100.00;97929.90;109650;1251;60807;-79
2023/08/02 04:32:25;;;;;;;3.10;2.80;;;;;;;24.23;100.00;97928.98;109576;1251;63710;-79
2023/08/02 04:34:52;;;;;;;5.70;3.20;;;;;;;24.36;100.00;97932.27;109564;1251;58135;-77
2023/08/02 04:37:18;;;;;;;6.40;3.80;;;;;;;24.37;100.00;97935.78;109601;1251;58196;-78
2023/08/02 04:39:45;;;;;;;3.90;2.70;;;;;;;24.55;100.00;97936.64;109605;1251;65265;-78
2023/08/02 04:42:11;;;;;;;4.20;2.80;;;;;;;24.66;100.00;97932.52;109628;1251;61028;-77
2023/08/02 04:44:38;;;;;;;4.10;2.40;;;;;;;24.82;100.00;97933.59;109410;1251;64062;-77
2023/08/02 04:47:05;;;;;;;2.90;2.50;;;;;;;24.81;100.00;97938.50;109628;1251;58211;-78
2023/08/02 04:49:31;;;;;;;3.40;3.00;;;;;;;24.91;100.00;97939.56;109594;1251;58219;-78
2023/08/02 04:51:58;;;;;;;4.90;3.20;;;;;;;25.04;100.00;97937.50;109587;1251;73564;-77
2023/08/02 04:54:24;;;;;;;5.20;3.60;;;;;;;25.17;100.00;97941.12;109602;1251;60192;-78
2023/08/02 04:56:51;;;;;;;3.10;2.80;;;;;;;25.29;100.00;97934.38;109611;1251;63699;-79
2023/08/02 04:59:17;;;;;;;3.50;3.20;;;;;;;25.32;100.00;97933.31;109559;1250;58194;-79
2023/08/02 05:01:44;;;;;;;3.10;2.80;;;;;;;25.39;100.00;97931.11;109622;1251;58131;-79
2023/08/02 05:04:13;;;;;;;3.50;2.70;;;;;;;25.64;100.00;97928.98;109583;1251;65159;-79
2023/08/02 05:06:39;;;;;;;13.20;4.70;;;;;;;25.81;100.00;97932.43;109639;1250;59752;-79
2023/08/02 05:09:06;;;;;;;3.60;3.00;;;;;;;26.02;100.00;97934.35;109593;1251;64621;-78
2023/08/02 05:11:33;;;;;;;3.00;2.70;;;;;;;26.11;100.00;97935.34;109529;1251;58232;-78
2023/08/02 05:14:00;;;;;;;3.10;2.60;;;;;;;26.20;100.00;97931.98;109471;1251;58217;-78
2023/08/02 05:16:27;;;;;;;4.70;2.60;;;;;;;26.30;100.00;97931.06;109635;1250;65078;-79
2023/08/02 05:18:53;;;;;;;3.50;2.70;;;;;;;26.40;100.00;97937.52;109574;1251;60022;-79
2023/08/02 05:21:20;;;;;;;2.40;2.10;;;;;;;26.48;100.00;97937.26;109595;1251;65056;-78
2023/08/02 05:23:46;;;;;;;2.50;2.30;;;;;;;26.54;100.00;97933.67;109626;1251;58254;-78
2023/08/02 05:26:13;;;;;;;2.90;2.70;;;;;;;26.48;100.00;97931.86;109580;1251;58147;-78
2023/08/02 05:28:40;;;;;;;2.30;2.10;;;;;;;26.44;100.00;97936.17;109611;1251;65006;-79
2023/08/02 05:31:13;;;;;;;2.70;2.30;;;;;;;26.34;100.00;97936.98;109595;1251;60994;-77
2023/08/02 05:33:40;;;;;;;3.60;2.30;;;;;;;26.32;100.00;97938.07;109520;1251;63767;-79
2023/08/02 05:36:07;;;;;;;3.00;2.10;;;;;;;26.36;100.00;97937.20;109492;1251;58225;-78
2023/08/02 05:38:34;;;;;;;3.00;2.10;;;;;;;26.37;100.00;97937.57;109549;1251;58186;-80
2023/08/02 05:41:01;;;;;;;5.10;2.80;;;;;;;26.34;100.00;97940.15;109623;1250;66287;-79
2023/08/02 05:43:28;;;;;;;4.00;2.80;;;;;;;26.27;100.00;97945.42;109620;1251;61235;-79
2023/08/02 05:45:56;;;;;;;2.60;2.20;;;;;;;26.41;100.00;97947.02;109642;1251;64747;-79
2023/08/02 05:48:23;;;;;;;5.10;2.40;;;;;;;26.64;100.00;97952.05;109395;1251;58257;-79
2023/08/02 05:50:50;;;;;;;2.50;2.30;;;;;;;26.69;100.00;97955.54;109586;1251;58433;-79
2023/08/02 05:53:16;;;;;;;3.30;2.30;;;;;;;26.77;100.00;97957.66;109594;1251;64970;-78
2023/08/02 05:55:43;;;;;;;3.00;2.60;;;;;;;26.86;100.00;97958.84;109652;1251;60946;-78
2023/08/02 05:58:09;;;;;;;5.40;2.80;;;;;;;26.98;100.00;97957.71;109607;1251;65165;-80
2023/08/02 06:00:36;;;;;;;2.80;2.50;;;;;;;27.02;100.00;97960.49;109434;1251;58199;-78
2023/08/02 06:03:03;;;;;;;2.40;2.10;;;;;;;27.01;100.00;97959.83;109600;1251;58258;-78
2023/08/02 06:05:30;;;;;;;2.40;2.20;;;;;;;27.06;100.00;97959.88;109654;1251;66473;-78
2023/08/02 06:07:56;;;;;;;3.90;2.70;;;;;;;26.97;100.00;97957.91;109631;1251;61065;-79
2023/08/02 06:10:23;;;;;;;2.50;2.20;;;;;;;26.90;100.00;97960.88;109582;1251;65187;-79
2023/08/02 06:12:50;;;;;;;2.80;2.50;;;;;;;26.90;100.00;97959.48;109607;1251;58176;-78
2023/08/02 06:15:16;;;;;;;2.40;2.20;;;;;;;27.02;100.00;97959.85;109592;1251;58211;-79
2023/08/02 06:17:43;;;;;;;4.60;2.30;;;;;;;26.99;100.00;97962.22;109601;1251;66250;-79
2023/08/02 06:20:10;;;;;;;2.50;2.30;;;;;;;26.90;100.00;97962.48;109659;1250;61074;-79
2023/08/02 06:22:36;;;;;;;3.50;2.30;;;;;;;26.85;100.00;97964.73;109603;1251;63729;-78
2023/08/02 06:25:03;;;;;;;3.00;2.40;;;;;;;26.88;100.00;97965.16;109684;1251;58197;-78
2023/08/02 06:27:30;;;;;;;4.50;2.40;;;;;;;26.88;100.00;97966.38;109563;1251;58555;-78
2023/08/02 06:29:56;;;;;;;3.60;2.40;;;;;;;26.87;100.00;97965.64;109647;1251;65217;-78
2023/08/02 06:32:23;;;;;;;2.10;1.80;;;;;;;26.93;100.00;97964.36;109625;1251;59806;-80
2023/08/02 06:34:50;;;;;;;2.50;2.00;;;;;;;26.93;100.00;97962.50;109557;1251;63728;-79
2023/08/02 06:37:16;;;;;;;2.90;2.30;;;;;;;26.86;100.00;97960.73;109553;1251;58244;-80
2023/08/02 06:39:43;;;;;;;2.60;2.00;;;;;;;26.66;100.00;97967.85;109579;1251;58236;-79
2023/08/02 06:42:09;;;;;;;2.40;1.90;;;;;;;26.60;100.00;97969.88;109584;1250;64177;-78
2023/08/02 06:44:36;;;;;;;2.70;2.00;;;;;;;26.54;100.00;97970.02;109583;1251;61117;-78
2023/08/02 06:47:03;;;;;;;3.70;2.00;;;;;;;26.56;100.00;97969.16;109638;1251;65273;-79
2023/08/02 06:49:29;;;;;;;4.80;2.40;;;;;;;26.59;100.00;97966.73;109553;1251;58132;-79
2023/08/02 06:51:56;;;;;;;5.40;2.20;;;;;;;26.64;100.00;97967.21;109629;1251;58061;-79
2023/08/02 06:54:22;;;;;;;2.60;2.00;;;;;;;26.66;100.00;97968.30;109570;1251;66254;-79
2023/08/02 06:56:49;;;;;;;2.30;1.70;;;;;;;26.61;100.00;97968.30;109615;1251;59676;-79
2023/08/02 06:59:16;;;;;;;2.10;1.50;;;;;;;26.59;100.00;97964.92;109586;1251;65116;-79
2023/08/02 07:01:42;;;;;;;3.10;1.80;;;;;;;26.53;100.00;97968.27;109550;1251;58256;-79
2023/08/02 07:04:09;;;;;;;3.90;2.50;;;;;;;26.41;100.00;97974.21;109437;1251;58980;-78
2023/08/02 07:06:36;;;;;;;2.20;1.80;;;;;;;26.35;100.00;97980.17;109653;1251;64946;-79
2023/08/02 07:09:02;;;;;;;2.20;1.80;;;;;;;26.32;100.00;97989.75;109242;1251;60034;-79
2023/08/02 07:11:29;;;;;;;2.70;2.00;;;;;;;26.24;100.00;97989.98;109414;1251;64048;-79
2023/08/02 07:13:58;;;;;;;2.30;2.00;;;;;;;26.03;100.00;97993.91;109612;1250;58233;-78
2023/08/02 07:16:24;;;;;;;2.30;1.80;;;;;;;25.32;100.00;97994.67;109388;1251;58035;-81
2023/08/02 07:18:51;;;;;;;2.10;1.90;;;;;;;24.87;100.00;97995.11;109580;1251;66068;-79
2023/08/02 07:21:17;;;;;;;2.40;2.10;;;;;;;24.64;100.00;97986.27;109622;1252;60841;-78
2023/08/02 07:23:44;;;;;;;2.50;2.20;;;;;;;24.54;100.00;97984.39;109554;1251;63771;-78
2023/08/02 07:26:11;;;;;;;3.10;2.00;;;;;;;24.61;100.00;97987.73;109640;1251;58148;-79
2023/08/02 07:28:37;;;;;;;3.10;1.80;;;;;;;24.54;100.00;97990.71;109408;1251;58405;-78
2023/08/02 07:31:08;;;;;;;2.10;1.90;;;;;;;24.48;100.00;97989.73;109645;1251;64978;-81
2023/08/02 07:33:35;;;;;;;2.20;2.00;;;;;;;24.26;100.00;97990.17;109655;1251;61188;-80
2023/08/02 07:36:02;;;;;;;2.90;2.20;;;;;;;23.96;100.00;97989.21;109581;1251;64221;-80
2023/08/02 07:38:29;;;;;;;3.00;1.90;;;;;;;23.61;100.00;97993.42;109599;1250;58171;-79
2023/08/02 07:40:56;;;;;;;3.40;2.10;;;;;;;23.36;100.00;97999.92;109623;1251;58222;-79
2023/08/02 07:43:23;;;;;;;2.10;1.90;;;;;;;23.43;100.00;98000.77;109630;1251;65335;-79
2023/08/02 07:45:49;;;;;;;4.60;2.20;;;;;;;23.64;100.00;97999.20;109623;1251;60815;-78
2023/08/02 07:48:16;;;;;;;3.30;2.20;;;;;;;23.78;100.00;97997.66;109404;1251;64046;-78
2023/08/02 07:50:42;;;;;;;2.40;2.00;;;;;;;23.97;100.00;97998.34;109566;1251;58260;-78
2023/08/02 07:53:09;;;;;;;2.70;2.20;;;;;;;24.21;100.00;97998.81;109586;1251;58273;-78
2023/08/02 07:55:35;;;;;;;3.00;1.90;;;;;;;24.36;100.00;97990.00;109637;1251;65969;-78
2023/08/02 07:58:03;;;;;;;2.60;1.90;;;;;;;24.51;100.00;97988.63;109614;1251;60713;-79
2023/08/02 08:00:29;;;;;;;1.70;1.60;;;;;;;24.44;100.00;97989.78;109620;1251;64037;-78
2023/08/02 08:02:56;;;;;;;2.60;1.90;;;;;;;24.32;100.00;97986.20;109555;1251;58507;-78
2023/08/02 08:05:25;;;;;;;2.90;2.00;;;;;;;24.29;100.00;97986.77;109623;1251;58132;-78
2023/08/02 08:07:51;;;;;;;2.40;2.20;;;;;;;24.14;100.00;97987.66;109602;1251;66085;-79
2023/08/02 08:10:18;;;;;;;2.40;1.60;;;;;;;24.23;100.00;97985.03;109608;1251;59747;-79
2023/08/02 08:12:45;;;;;;;1.80;1.70;;;;;;;24.37;100.00;97977.47;109572;1251;64435;-80
2023/08/02 08:15:11;;;;;;;1.50;1.40;;;;;;;24.50;100.00;97973.16;109587;1251;58197;-80
2023/08/02 08:17:38;;;;;;;4.80;1.60;;;;;;;24.53;100.00;97969.48;109623;1251;58263;-80
2023/08/02 08:20:05;;;;;;;2.00;1.70;;;;;;;24.54;100.00;97967.99;109620;1251;65208;-80
2023/08/02 08:22:32;;;;;;;2.20;1.70;;;;;;;24.53;100.00;97968.72;109243;1251;58545;-78
2023/08/02 08:24:59;;;;;;;1.50;1.40;;;;;;;24.59;100.00;97963.23;109631;1251;64836;-79
2023/08/02 08:27:26;;;;;;;2.90;1.80;;;;;;;24.67;100.00;97966.64;109618;1251;58108;-79
2023/08/02 08:29:52;;;;;;;3.30;2.10;;;;;;;24.65;100.00;97969.06;109257;1251;58213;-79
2023/08/02 08:32:20;;;;;;;3.40;1.80;;;;;;;24.58;100.00;97973.05;109599;1251;66012;-79
2023/08/02 08:34:46;;;;;;;2.40;1.50;;;;;;;24.48;100.00;97974.44;109613;1251;60907;-79
2023/08/02 08:37:13;;;;;;;4.00;1.60;;;;;;;24.62;100.00;97979.56;109572;1251;65297;-80
2023/08/02 08:39:39;;;;;;;3.10;1.80;;;;;;;24.71;100.00;97982.48;109594;1251;58132;-79
2023/08/02 08:42:07;;;;;;;3.70;1.90;;;;;;;24.85;100.00;97978.86;109603;1251;58216;-81
2023/08/02 08:44:38;;;;;;;1.90;1.70;;;;;;;24.93;100.00;97978.08;109632;1251;65360;-80
2023/08/02 08:47:08;;;;;;;2.60;1.80;;;;;;;25.20;100.00;97980.48;109595;1251;59734;-80
2023/08/02 08:49:35;;;;;;;2.50;1.50;;;;;;;25.26;100.00;97981.98;109626;1251;62763;-79
2023/08/02 08:52:04;;;;;;;2.70;1.40;;;;;;;25.05;100.00;97983.72;109520;1251;58238;-79
2023/08/02 08:54:31;;;;;;;;;;;;;;;24.94;100.00;97985.00;109642;1251;58253;-78
2023/08/02 08:56:59;;;;;;;1.20;1.10;;;;;;;24.81;100.00;97979.34;109256;1251;65480;-78
2023/08/02 08:59:26;;;;;;;1.60;1.30;;;;;;;24.76;100.00;97981.05;109571;1251;61036;-79
2023/08/02 09:01:54;;;;;;;1.40;1.30;;;;;;;24.87;100.00;97979.00;109589;1251;73823;-79
2023/08/02 09:04:21;;;;;;;1.90;1.30;;;;;;;24.91;100.00;97973.33;109565;1251;58181;-80
2023/08/02 09:06:48;;;;;;;1.70;1.60;;;;;;;24.91;100.00;97980.40;109660;1251;58232;-80
2023/08/02 09:09:15;;;;;;;1.70;1.30;;;;;;;24.61;100.00;97979.95;109614;1251;65177;-80
2023/08/02 09:11:45;;;;;;;1.40;1.30;;;;;;;24.49;100.00;97978.42;109604;1251;61668;-79
2023/08/02 09:14:12;;;;;;;;;;;;;;;24.59;100.00;97976.45;109477;1250;155972;-79
2023/08/02 09:16:56;;;;;;;1.30;1.20;;;;;;;24.72;100.00;97972.77;109381;1255;58168;-80
2023/08/02 09:19:31;;;;;;;3.00;1.60;;;;;;;25.00;100.00;97967.98;109655;1251;58227;-80
2023/08/02 09:22:12;;;;;;;1.60;1.50;;;;;;;25.16;100.00;97970.14;109599;1251;65095;-80
2023/08/02 09:24:43;;;;;;;3.10;1.70;;;;;;;25.36;100.00;97972.02;109257;1255;60336;-79
2023/08/02 09:27:15;;;;;;;2.90;1.80;;;;;;;25.57;100.00;97970.06;109237;1255;65182;-80
2023/08/02 09:29:50;;;;;;;3.20;1.50;;;;;;;25.35;100.00;97969.45;109142;1255;58333;-79
2023/08/02 09:32:18;;;;;;;3.50;1.40;;;;;;;25.05;100.00;97974.66;109263;1255;58220;-79
2023/08/02 09:34:47;;;;;;;1.70;1.40;;;;;;;24.80;100.00;97972.23;109254;1255;63725;-78
2023/08/02 09:37:16;;;;;;;1.80;1.30;;;;;;;24.75;100.00;97966.12;108925;1256;61445;-79
2023/08/02 09:39:50;;;;;;;1.40;1.30;;;;;;;24.91;100.00;97966.40;109233;1255;62559;-80
2023/08/02 09:42:21;;;;;;;1.90;0.90;;;;;;;25.14;100.00;97962.44;109139;1255;58477;-79
2023/08/02 09:45:08;;;;;;;1.30;1.20;;;;;;;25.26;100.00;97957.61;109259;1254;58166;-80
2023/08/02 09:47:35;;;;;;;1.70;1.10;;;;;;;25.12;100.00;97957.73;109261;1255;72606;-78
2023/08/02 09:50:03;;;;;;;2.10;1.30;;;;;;;25.14;100.00;97957.02;109290;1255;59006;-79
2023/08/02 09:52:30;;;;;;;2.40;1.40;;;;;;;25.29;100.00;97959.02;109268;1254;62693;-79
2023/08/02 09:54:57;;;;;;;1.30;1.10;;;;;;;25.31;100.00;97959.63;109267;1255;58237;-82
2023/08/02 09:57:26;;;;;;;3.00;1.10;;;;;;;25.17;100.00;97954.81;109687;1251;58149;-80
2023/08/02 09:59:55;;;;;;;1.70;1.10;;;;;;;25.03;100.00;97953.78;109607;1252;65213;-80
2023/08/02 10:02:26;;;;;;;3.20;1.50;;;;;;;24.97;100.00;97954.41;109465;1251;60127;-80
2023/08/02 10:04:58;;;;;;;2.80;1.30;;;;;;;25.05;100.00;97948.52;109358;1251;62984;-80
2023/08/02 10:07:36;;;;;;;3.00;1.30;;;;;;;25.14;100.00;97944.44;109603;1251;58229;-81
2023/08/02 10:10:21;;;;;;;1.20;1.10;;;;;;;25.18;100.00;97938.92;109630;1251;58152;-80
2023/08/02 10:12:54;;;;;;;3.00;1.30;;;;;;;25.16;100.00;97936.02;109653;1251;65285;-81
2023/08/02 10:15:22;;;;;;;2.50;1.20;;;;;;;25.14;100.00;97939.02;109642;1252;60292;-79
2023/08/02 10:17:49;;;;;;;2.50;1.30;;;;;;;25.20;100.00;97935.34;109629;1251;62713;-80
2023/08/02 10:20:16;;;;;;;1.70;1.30;;;;;;;25.30;100.00;97933.80;109579;1251;58233;-80
2023/08/02 10:22:44;;;;;;;2.00;1.10;;;;;;;25.40;100.00;97932.10;109622;1251;58184;-81
2023/08/02 10:25:13;;;;;;;1.20;1.10;;;;;;;25.46;100.00;97931.48;109390;1251;66467;-80
2023/08/02 10:27:41;;;;;;;1.10;0.70;;;;;;;25.55;100.00;97924.96;109702;1254;58935;-81
2023/08/02 10:30:08;;;;;;;1.50;0.90;;;;;;;25.52;100.00;97919.31;109618;1251;65554;-80
2023/08/02 10:32:35;;;;;;;4.30;1.70;;;;;;;25.54;100.00;97916.44;109575;1257;58157;-82
2023/08/02 10:35:01;;;;;;;1.40;1.00;;;;;;;25.60;100.00;97915.30;109659;1251;58342;-79
2023/08/02 10:37:51;;;;;;;1.60;0.90;;;;;;;25.62;100.00;97915.28;109426;1251;66142;-78
2023/08/02 10:40:21;;;;;;;1.40;1.00;;;;;;;25.76;100.00;97913.91;109620;1251;60095;-80
2023/08/02 10:43:07;;;;;;;1.20;1.00;;;;;;;25.88;100.00;97912.17;109630;1251;64065;-79
2023/08/02 10:45:34;;;;;;;1.50;0.90;;;;;;;25.89;100.00;97909.84;109616;1251;58169;-79
2023/08/02 10:48:36;;;;;;;1.40;0.90;;;;;;;25.89;100.00;97910.61;109621;1251;58258;-79
2023/08/02 10:51:03;;;;;;;2.80;0.80;;;;;;;25.90;100.00;97911.42;109013;1259;63708;-80
2023/08/02 10:53:30;;;;;;;3.40;0.80;;;;;;;25.91;100.00;97912.30;109025;1259;61334;-79
2023/08/02 10:56:10;;;;;;;4.00;1.00;;;;;;;25.90;100.00;97904.85;108916;1258;63909;-79
2023/08/02 10:59:06;;;;;;;0.90;0.80;;;;;;;25.80;100.00;97905.48;109047;1258;58307;-78
2023/08/02 11:01:32;;;;;;;1.50;0.80;;;;;;;25.71;100.00;97904.17;108620;1263;59289;-79
2023/08/02 11:04:00;;;;;;;1.40;0.90;;;;;;;25.73;100.00;97906.77;108706;1265;63699;-79
2023/08/02 11:06:29;;;;;;;1.50;1.10;;;;;;;25.77;100.00;97901.77;108719;1263;58646;-79
2023/08/02 11:08:55;;;;;;;1.70;1.00;;;;;;;25.88;100.00;97906.40;108693;1263;64104;-81
2023/08/02 11:11:30;;;;;;;1.50;1.20;;;;;;;25.89;100.00;97904.39;108683;1263;58243;-79
2023/08/02 11:13:57;;;;;;;1.70;0.80;;;;;;;25.96;100.00;97900.77;108658;1264;59361;-79
2023/08/02 11:16:24;;;;;;;1.20;0.80;;;;;;;26.00;98.00;97900.73;108677;1264;66414;-78
2023/08/02 11:18:50;;;;;;;2.40;0.90;;;;;;;26.03;89.84;97898.80;108696;1264;58769;-80
2023/08/02 11:21:17;;;;;;;2.60;1.20;;;;;;;25.93;88.53;97898.38;108679;1264;63762;-79
2023/08/02 11:23:46;;;;;;;1.20;1.10;;;;;;;25.88;87.71;97891.63;108698;1264;58193;-85